Time;durP1;ratioP1;P1;durP2;ratioP2;P2;SDS_P1;SDS_P2;PMS_P1;PMS_P2;Temp;Humidity;BMP_temperature;BMP_pressure;BME280_temperature;BME280_humidity;BME280_pressure;Samples;Min_cycle;Max_cycle;Signal;HPM_P1;HPM_P2
2024/03/19 00:02:04;;;;;;;8.50;6.07;;;;;;;;;;5059374;28;20269;-86
2024/03/19 00:04:30;;;;;;;10.32;6.50;;;;;;;;;;5049112;28;20454;-86
2024/03/19 00:06:56;;;;;;;9.93;5.60;;;;;;;;;;5066790;28;20268;-86
2024/03/19 00:09:22;;;;;;;9.52;5.70;;;;;;;;;;5045849;28;20886;-86
2024/03/19 00:11:48;;;;;;;12.02;6.65;;;;;;;;;;5053124;28;20182;-87
2024/03/19 00:14:14;;;;;;;10.03;6.17;;;;;;;;;;5061197;28;20496;-86
2024/03/19 00:16:40;;;;;;;6.80;5.43;;;;;;;;;;5063102;28;20451;-87
2024/03/19 00:19:08;;;;;;;8.03;5.47;;;;;;;;;;5055078;28;20506;-87
2024/03/19 00:21:34;;;;;;;12.00;6.10;;;;;;;;;;5061779;28;20837;-87
2024/03/19 00:24:02;;;;;;;8.07;5.00;;;;;;;;;;5066217;28;20203;-86
2024/03/19 00:26:28;;;;;;;9.20;5.78;;;;;;;;;;5059509;28;20634;-86
2024/03/19 00:28:54;;;;;;;9.07;5.73;;;;;;;;;;5062060;28;20201;-87
2024/03/19 00:31:20;;;;;;;6.85;5.25;;;;;;;;;;5051462;28;20434;-86
2024/03/19 00:33:48;;;;;;;6.50;5.03;;;;;;;;;;5059615;28;20209;-86
2024/03/19 00:36:14;;;;;;;10.27;5.80;;;;;;;;;;5045548;28;20291;-86
2024/03/19 00:38:40;;;;;;;9.18;6.20;;;;;;;;;;5051466;28;20185;-87
2024/03/19 00:41:06;;;;;;;12.73;6.57;;;;;;;;;;5048603;28;20192;-85
2024/03/19 00:43:32;;;;;;;8.75;5.75;;;;;;;;;;5069280;28;20428;-86
2024/03/19 00:45:59;;;;;;;9.32;5.97;;;;;;;;;;5061224;28;20190;-86
2024/03/19 00:48:25;;;;;;;10.50;6.28;;;;;;;;;;5052181;28;20713;-86
2024/03/19 00:50:51;;;;;;;10.40;5.93;;;;;;;;;;5047857;28;20295;-86
2024/03/19 00:53:17;;;;;;;9.35;6.22;;;;;;;;;;5051668;28;20274;-86
2024/03/19 00:55:43;;;;;;;9.73;4.82;;;;;;;;;;5047099;28;20250;-86
2024/03/19 00:58:09;;;;;;;8.30;6.00;;;;;;;;;;5047736;28;20648;-86
2024/03/19 01:00:35;;;;;;;6.60;4.85;;;;;;;;;;5048496;28;20182;-86
2024/03/19 01:03:01;;;;;;;10.43;6.07;;;;;;;;;;5045449;28;20520;-86
2024/03/19 01:05:27;;;;;;;12.20;5.80;;;;;;;;;;5063301;28;20414;-86
2024/03/19 01:07:53;;;;;;;10.43;6.43;;;;;;;;;;5062202;28;20285;-86
2024/03/19 01:10:19;;;;;;;13.00;6.00;;;;;;;;;;5058643;28;20443;-86
2024/03/19 01:12:45;;;;;;;9.20;5.43;;;;;;;;;;5065249;28;20177;-86
2024/03/19 01:15:11;;;;;;;10.65;6.50;;;;;;;;;;5049790;28;20432;-86
2024/03/19 01:17:39;;;;;;;10.23;5.97;;;;;;;;;;5064339;28;20189;-86
2024/03/19 01:20:09;;;;;;;8.30;5.60;;;;;;;;;;5060712;28;20705;-85
2024/03/19 01:22:36;;;;;;;10.63;6.43;;;;;;;;;;5044604;28;20219;-86
2024/03/19 01:25:02;;;;;;;13.30;6.97;;;;;;;;;;5064244;28;20206;-85
2024/03/19 01:27:28;;;;;;;7.82;6.03;;;;;;;;;;5051091;28;20177;-85
2024/03/19 01:29:54;;;;;;;7.70;5.60;;;;;;;;;;5062984;28;20350;-86
2024/03/19 01:32:20;;;;;;;10.43;5.80;;;;;;;;;;5049910;28;20437;-86
2024/03/19 01:34:46;;;;;;;10.73;7.27;;;;;;;;;;5052684;28;20628;-86
2024/03/19 01:37:12;;;;;;;13.03;6.97;;;;;;;;;;5062109;28;20435;-85
2024/03/19 01:39:38;;;;;;;11.20;5.90;;;;;;;;;;5050325;28;20505;-85
2024/03/19 01:42:04;;;;;;;10.03;5.80;;;;;;;;;;5046634;28;20429;-86
2024/03/19 01:44:30;;;;;;;9.50;6.47;;;;;;;;;;5069103;28;20488;-86
2024/03/19 01:46:56;;;;;;;8.43;6.90;;;;;;;;;;5063664;28;20256;-86
2024/03/19 01:49:24;;;;;;;13.10;6.25;;;;;;;;;;5046451;28;20212;-86
2024/03/19 01:51:50;;;;;;;8.70;5.78;;;;;;;;;;5046095;28;20181;-86
2024/03/19 01:54:16;;;;;;;8.97;6.07;;;;;;;;;;5044674;28;20652;-86
2024/03/19 01:56:42;;;;;;;15.00;6.70;;;;;;;;;;5061097;28;20470;-85
2024/03/19 01:59:08;;;;;;;9.13;6.32;;;;;;;;;;5046230;28;20432;-87
2024/03/19 02:01:34;;;;;;;14.98;6.80;;;;;;;;;;5050762;28;20180;-86
2024/03/19 02:04:00;;;;;;;8.20;6.07;;;;;;;;;;5063854;28;20322;-86
2024/03/19 02:06:26;;;;;;;10.98;7.18;;;;;;;;;;5045049;28;20435;-86
2024/03/19 02:09:05;;;;;;;15.70;6.70;;;;;;;;;;5044034;28;20202;-86
2024/03/19 02:11:31;;;;;;;9.65;6.35;;;;;;;;;;5042201;28;20412;-86
2024/03/19 02:14:01;;;;;;;12.73;6.55;;;;;;;;;;5056609;28;20185;-85
2024/03/19 02:16:27;;;;;;;10.15;6.28;;;;;;;;;;5048691;28;20201;-86
2024/03/19 02:18:56;;;;;;;10.88;7.18;;;;;;;;;;5066970;28;20182;-87
2024/03/19 02:21:22;;;;;;;11.05;6.97;;;;;;;;;;5066264;28;20645;-86
2024/03/19 02:23:48;;;;;;;12.50;7.70;;;;;;;;;;5073327;28;20657;-86
2024/03/19 02:26:14;;;;;;;13.02;7.07;;;;;;;;;;5064618;28;20185;-86
2024/03/19 02:28:40;;;;;;;10.53;7.03;;;;;;;;;;5052528;28;20257;-86
2024/03/19 02:31:06;;;;;;;9.13;6.30;;;;;;;;;;5049966;28;20433;-86
2024/03/19 02:33:32;;;;;;;11.63;7.10;;;;;;;;;;5048531;28;20558;-86
2024/03/19 02:35:58;;;;;;;9.40;6.70;;;;;;;;;;5059377;28;20920;-86
2024/03/19 02:38:26;;;;;;;9.30;6.93;;;;;;;;;;5053733;28;20492;-86
2024/03/19 02:40:52;;;;;;;10.20;6.35;;;;;;;;;;5061677;28;20566;-86
2024/03/19 02:43:19;;;;;;;12.33;6.57;;;;;;;;;;5056308;28;20219;-86
2024/03/19 02:45:45;;;;;;;11.98;6.30;;;;;;;;;;5051682;28;20485;-86
2024/03/19 02:48:12;;;;;;;13.90;7.38;;;;;;;;;;5062561;28;20313;-87
2024/03/19 02:50:38;;;;;;;8.63;7.38;;;;;;;;;;5063203;28;20717;-86
2024/03/19 02:53:04;;;;;;;10.85;6.40;;;;;;;;;;5057361;28;20542;-87
2024/03/19 02:55:31;;;;;;;17.35;7.13;;;;;;;;;;5071116;28;20177;-87
2024/03/19 02:57:57;;;;;;;12.32;6.47;;;;;;;;;;5072464;28;20213;-87
2024/03/19 03:00:23;;;;;;;9.43;5.93;;;;;;;;;;5059939;28;20358;-86
2024/03/19 03:02:49;;;;;;;11.63;7.70;;;;;;;;;;5052557;28;20424;-87
2024/03/19 03:05:15;;;;;;;11.17;6.43;;;;;;;;;;5060997;28;20432;-86
2024/03/19 03:07:41;;;;;;;16.27;7.40;;;;;;;;;;5064534;28;20868;-86
2024/03/19 03:10:07;;;;;;;13.83;6.80;;;;;;;;;;5063376;28;20283;-86
2024/03/19 03:12:33;;;;;;;12.18;7.13;;;;;;;;;;5061563;28;20427;-86
2024/03/19 03:14:59;;;;;;;12.83;6.77;;;;;;;;;;5050529;28;20709;-86
2024/03/19 03:17:25;;;;;;;9.15;6.65;;;;;;;;;;5068532;28;20812;-86
2024/03/19 03:19:51;;;;;;;12.30;7.47;;;;;;;;;;5049947;28;20250;-86
2024/03/19 03:22:17;;;;;;;9.10;6.83;;;;;;;;;;5050160;28;20412;-86
2024/03/19 03:24:45;;;;;;;15.63;6.93;;;;;;;;;;5068615;28;20554;-87
2024/03/19 03:27:11;;;;;;;11.55;6.63;;;;;;;;;;5070036;28;20516;-86
2024/03/19 03:29:37;;;;;;;15.55;6.63;;;;;;;;;;5055789;28;20246;-86
2024/03/19 03:32:03;;;;;;;9.17;6.43;;;;;;;;;;5048054;28;20185;-87
2024/03/19 03:34:31;;;;;;;11.55;6.72;;;;;;;;;;5061586;28;20467;-87
2024/03/19 03:36:57;;;;;;;9.65;6.30;;;;;;;;;;5064326;28;20688;-86
2024/03/19 03:39:23;;;;;;;7.50;5.95;;;;;;;;;;5053781;28;20192;-86
2024/03/19 03:41:49;;;;;;;12.07;7.20;;;;;;;;;;5042359;28;20174;-87
2024/03/19 03:44:15;;;;;;;15.60;6.57;;;;;;;;;;5064622;28;20928;-86
2024/03/19 03:46:41;;;;;;;11.75;7.63;;;;;;;;;;5059092;28;20583;-87
2024/03/19 03:49:07;;;;;;;13.53;6.57;;;;;;;;;;5068770;28;20224;-86
2024/03/19 03:51:32;;;;;;;8.97;5.40;;;;;;;;;;5060320;28;20813;-87
2024/03/19 03:53:58;;;;;;;10.27;5.77;;;;;;;;;;5046561;28;20423;-87
2024/03/19 03:56:24;;;;;;;9.20;5.70;;;;;;;;;;5047557;28;20424;-86
2024/03/19 03:58:51;;;;;;;12.07;5.77;;;;;;;;;;5064440;28;20481;-87
2024/03/19 04:01:18;;;;;;;15.90;6.35;;;;;;;;;;5058261;28;20461;-86
2024/03/19 04:03:44;;;;;;;10.15;5.90;;;;;;;;;;5047952;28;20224;-85
2024/03/19 04:06:10;;;;;;;8.47;5.27;;;;;;;;;;5045457;28;20181;-86
2024/03/19 04:08:36;;;;;;;11.55;6.03;;;;;;;;;;5068860;28;20500;-87
2024/03/19 04:11:02;;;;;;;9.93;5.23;;;;;;;;;;5048962;28;20185;-87
2024/03/19 04:13:28;;;;;;;12.87;5.67;;;;;;;;;;5059668;28;20512;-87
2024/03/19 04:15:56;;;;;;;8.38;5.28;;;;;;;;;;5049315;28;20440;-86
2024/03/19 04:18:22;;;;;;;14.63;6.03;;;;;;;;;;5052324;28;20554;-86
2024/03/19 04:20:51;;;;;;;17.88;7.05;;;;;;;;;;5062597;28;20178;-86
2024/03/19 04:23:17;;;;;;;8.05;5.80;;;;;;;;;;5066728;28;20189;-87
2024/03/19 04:25:43;;;;;;;9.57;5.95;;;;;;;;;;5047743;28;20188;-86
2024/03/19 04:28:09;;;;;;;11.68;6.07;;;;;;;;;;5043332;28;20205;-87
2024/03/19 04:30:35;;;;;;;7.70;6.60;;;;;;;;;;5046929;28;20244;-87
2024/03/19 04:33:01;;;;;;;7.47;5.97;;;;;;;;;;5044909;28;20429;-86
2024/03/19 04:35:27;;;;;;;8.03;5.30;;;;;;;;;;5042907;28;20182;-87
2024/03/19 04:37:53;;;;;;;12.30;6.63;;;;;;;;;;5052124;28;20439;-87
2024/03/19 04:40:19;;;;;;;10.35;4.97;;;;;;;;;;5046914;28;20182;-86
2024/03/19 04:42:46;;;;;;;8.73;5.35;;;;;;;;;;5047970;28;20260;-87
2024/03/19 04:45:12;;;;;;;8.70;5.50;;;;;;;;;;5062960;28;20186;-86
2024/03/19 04:47:38;;;;;;;7.40;5.07;;;;;;;;;;5052660;28;20236;-87
2024/03/19 04:50:04;;;;;;;8.20;5.97;;;;;;;;;;5060471;28;20236;-86
2024/03/19 04:52:30;;;;;;;9.07;5.53;;;;;;;;;;5065243;28;20436;-86
2024/03/19 04:54:56;;;;;;;9.82;5.68;;;;;;;;;;5048647;28;20268;-86
2024/03/19 04:57:22;;;;;;;8.50;5.68;;;;;;;;;;5049137;28;20697;-86
2024/03/19 04:59:48;;;;;;;11.47;5.30;;;;;;;;;;5051602;28;20199;-86
2024/03/19 05:02:14;;;;;;;14.10;5.83;;;;;;;;;;5043859;28;20929;-85
2024/03/19 05:04:40;;;;;;;13.57;6.00;;;;;;;;;;5042626;28;20823;-86
2024/03/19 05:07:06;;;;;;;7.20;5.10;;;;;;;;;;5048569;28;20434;-86
2024/03/19 05:09:32;;;;;;;8.23;5.63;;;;;;;;;;5061002;28;20470;-86
2024/03/19 05:11:58;;;;;;;11.73;6.00;;;;;;;;;;5065259;28;20456;-86
2024/03/19 05:14:24;;;;;;;13.93;6.30;;;;;;;;;;5059033;28;20955;-86
2024/03/19 05:16:50;;;;;;;7.80;6.35;;;;;;;;;;5050244;28;21937;-85
2024/03/19 05:19:15;;;;;;;10.33;6.67;;;;;;;;;;5059272;28;20225;-85
2024/03/19 05:21:43;;;;;;;11.23;6.50;;;;;;;;;;5047829;28;20439;-86
2024/03/19 05:24:08;;;;;;;12.63;7.03;;;;;;;;;;5053452;28;20412;-85
2024/03/19 05:26:35;;;;;;;8.70;6.80;;;;;;;;;;5059317;28;20871;-86
2024/03/19 05:29:00;;;;;;;11.30;6.97;;;;;;;;;;5066132;28;20468;-86
2024/03/19 05:31:27;;;;;;;14.30;6.80;;;;;;;;;;5059485;28;20218;-86
2024/03/19 05:33:54;;;;;;;10.55;6.80;;;;;;;;;;5064304;28;20178;-86
2024/03/19 05:36:21;;;;;;;14.05;7.38;;;;;;;;;;5047204;28;20188;-85
2024/03/19 05:38:47;;;;;;;10.25;6.53;;;;;;;;;;5047667;28;20181;-85
2024/03/19 05:41:14;;;;;;;15.60;7.90;;;;;;;;;;5047587;28;20187;-85
2024/03/19 05:43:40;;;;;;;10.63;7.22;;;;;;;;;;5068978;28;20280;-86
2024/03/19 05:46:06;;;;;;;16.60;8.77;;;;;;;;;;5060707;28;20245;-85
2024/03/19 05:48:34;;;;;;;15.63;9.90;;;;;;;;;;5049624;28;20452;-86
2024/03/19 05:51:00;;;;;;;14.35;8.95;;;;;;;;;;5043392;28;20524;-85
2024/03/19 05:53:26;;;;;;;13.30;9.40;;;;;;;;;;5067994;28;20214;-85
2024/03/19 05:55:52;;;;;;;13.48;8.27;;;;;;;;;;5061287;28;20191;-85
2024/03/19 05:58:18;;;;;;;15.90;8.55;;;;;;;;;;5044068;28;20581;-85
2024/03/19 06:00:44;;;;;;;14.43;8.70;;;;;;;;;;5062847;28;20271;-85
2024/03/19 06:03:10;;;;;;;15.73;9.40;;;;;;;;;;5042687;28;20809;-85
2024/03/19 06:05:36;;;;;;;11.80;7.80;;;;;;;;;;5063244;28;21020;-85
2024/03/19 06:08:02;;;;;;;15.73;8.70;;;;;;;;;;5046057;28;20186;-85
2024/03/19 06:10:30;;;;;;;12.95;8.38;;;;;;;;;;5063492;28;20446;-85
2024/03/19 06:12:56;;;;;;;12.18;7.70;;;;;;;;;;5047935;28;20548;-85
2024/03/19 06:15:22;;;;;;;12.97;8.70;;;;;;;;;;5045810;28;20178;-86
2024/03/19 06:17:48;;;;;;;15.30;7.50;;;;;;;;;;5044907;28;20440;-85
2024/03/19 06:20:17;;;;;;;14.10;7.57;;;;;;;;;;5050344;28;20440;-85
2024/03/19 06:22:43;;;;;;;12.20;8.43;;;;;;;;;;5049665;28;20432;-85
2024/03/19 06:25:10;;;;;;;13.43;8.00;;;;;;;;;;5046243;28;20685;-86
2024/03/19 06:27:36;;;;;;;13.98;8.20;;;;;;;;;;5050994;28;20670;-85
2024/03/19 06:30:02;;;;;;;12.23;8.52;;;;;;;;;;5062553;28;20224;-86
2024/03/19 06:32:28;;;;;;;16.50;8.35;;;;;;;;;;5044399;28;20186;-85
2024/03/19 06:34:54;;;;;;;13.30;8.87;;;;;;;;;;5045411;28;20200;-85
2024/03/19 06:37:20;;;;;;;21.00;9.30;;;;;;;;;;5040120;28;20451;-85
2024/03/19 06:39:47;;;;;;;14.93;8.65;;;;;;;;;;5062500;28;20439;-85
2024/03/19 06:42:12;;;;;;;17.20;9.70;;;;;;;;;;5048038;28;20260;-84
2024/03/19 06:44:39;;;;;;;20.57;8.97;;;;;;;;;;5067211;28;20204;-85
2024/03/19 06:47:05;;;;;;;18.95;8.50;;;;;;;;;;5047808;28;20468;-86
2024/03/19 06:49:31;;;;;;;12.20;9.03;;;;;;;;;;5045787;28;20202;-85
2024/03/19 06:51:57;;;;;;;16.30;9.30;;;;;;;;;;5055441;28;20433;-86
2024/03/19 06:54:23;;;;;;;13.55;9.05;;;;;;;;;;5061755;28;20200;-85
2024/03/19 06:56:49;;;;;;;17.85;10.45;;;;;;;;;;5047013;28;20178;-86
2024/03/19 06:59:18;;;;;;;18.48;10.10;;;;;;;;;;5051349;28;20212;-85
2024/03/19 07:01:44;;;;;;;12.80;9.43;;;;;;;;;;5039198;28;20650;-86
2024/03/19 07:04:10;;;;;;;21.80;8.73;;;;;;;;;;5066909;28;20201;-85
2024/03/19 07:06:36;;;;;;;12.93;8.90;;;;;;;;;;5064728;28;20416;-86
2024/03/19 07:09:02;;;;;;;12.18;8.90;;;;;;;;;;5063376;28;20559;-86
2024/03/19 07:11:28;;;;;;;14.35;8.68;;;;;;;;;;5050475;28;20181;-86
2024/03/19 07:13:54;;;;;;;10.87;9.10;;;;;;;;;;5065426;28;20202;-86
2024/03/19 07:16:20;;;;;;;13.97;7.63;;;;;;;;;;5042697;28;20472;-86
2024/03/19 07:18:47;;;;;;;10.97;7.93;;;;;;;;;;5053130;28;20421;-85
2024/03/19 07:21:13;;;;;;;16.02;9.90;;;;;;;;;;5070409;28;20762;-84
2024/03/19 07:23:40;;;;;;;12.23;7.18;;;;;;;;;;5040300;28;20174;-86
2024/03/19 07:26:06;;;;;;;15.65;7.95;;;;;;;;;;5046017;28;20178;-85
2024/03/19 07:28:32;;;;;;;10.07;7.40;;;;;;;;;;5039795;28;20252;-85
2024/03/19 07:30:58;;;;;;;12.20;8.20;;;;;;;;;;5051484;28;20462;-85
2024/03/19 07:33:24;;;;;;;9.10;6.88;;;;;;;;;;5063517;28;20519;-85
2024/03/19 07:35:50;;;;;;;14.57;8.38;;;;;;;;;;5051572;28;20186;-86
2024/03/19 07:38:16;;;;;;;10.57;7.17;;;;;;;;;;5050904;28;20193;-85
2024/03/19 07:40:42;;;;;;;8.73;7.37;;;;;;;;;;5047967;28;20427;-85
2024/03/19 07:43:08;;;;;;;9.30;6.93;;;;;;;;;;5048309;28;20565;-85
2024/03/19 07:45:34;;;;;;;10.10;7.60;;;;;;;;;;5047559;28;20772;-84
2024/03/19 07:48:04;;;;;;;12.47;7.77;;;;;;;;;;5048134;28;20229;-84
2024/03/19 07:50:33;;;;;;;13.45;7.90;;;;;;;;;;5062829;28;20788;-86
2024/03/19 07:52:59;;;;;;;10.05;6.88;;;;;;;;;;5051721;28;20174;-91
2024/03/19 07:55:25;;;;;;;8.60;6.83;;;;;;;;;;5064935;28;20664;-90
2024/03/19 07:57:51;;;;;;;11.57;6.70;;;;;;;;;;5052720;28;20570;-89
2024/03/19 08:00:17;;;;;;;11.43;6.63;;;;;;;;;;5054411;28;20181;-89
2024/03/19 08:02:43;;;;;;;12.40;6.07;;;;;;;;;;5063984;28;20433;-88
2024/03/19 08:05:09;;;;;;;8.65;5.95;;;;;;;;;;5062295;28;20564;-84
2024/03/19 08:07:43;;;;;;;9.02;6.35;;;;;;;;;;5050111;28;20635;-83
2024/03/19 08:10:09;;;;;;;12.25;7.15;;;;;;;;;;5049609;28;20216;-84
2024/03/19 08:12:36;;;;;;;12.32;7.22;;;;;;;;;;5057905;28;20311;-84
2024/03/19 08:15:03;;;;;;;6.90;6.20;;;;;;;;;;5042939;28;20189;-81
2024/03/19 08:17:30;;;;;;;9.60;6.55;;;;;;;;;;5047677;28;20574;-84
2024/03/19 08:19:56;;;;;;;8.38;6.95;;;;;;;;;;5059180;28;20664;-82
2024/03/19 08:22:22;;;;;;;8.48;5.97;;;;;;;;;;5065564;28;20197;-85
2024/03/19 08:24:49;;;;;;;7.97;6.63;;;;;;;;;;5049615;28;20196;-85
2024/03/19 08:27:15;;;;;;;13.27;5.78;;;;;;;;;;5055670;28;20173;-84
2024/03/19 08:29:41;;;;;;;10.85;6.45;;;;;;;;;;5052328;28;20206;-83
2024/03/19 08:32:07;;;;;;;17.08;6.68;;;;;;;;;;5054299;28;20190;-84
2024/03/19 08:34:33;;;;;;;13.93;6.53;;;;;;;;;;5058109;28;20189;-84
2024/03/19 08:37:00;;;;;;;9.18;5.97;;;;;;;;;;5053492;28;20495;-85
2024/03/19 08:39:26;;;;;;;9.20;6.33;;;;;;;;;;5069328;28;20276;-84
2024/03/19 08:41:53;;;;;;;12.30;6.83;;;;;;;;;;5049129;28;20447;-84
2024/03/19 08:44:19;;;;;;;10.73;5.77;;;;;;;;;;5045737;28;20427;-84
2024/03/19 08:46:45;;;;;;;8.90;6.53;;;;;;;;;;5066500;28;21013;-84
2024/03/19 08:49:11;;;;;;;9.23;5.80;;;;;;;;;;5048332;28;20209;-84
2024/03/19 08:51:37;;;;;;;7.50;6.60;;;;;;;;;;5069237;28;20428;-85
2024/03/19 08:54:04;;;;;;;8.98;5.30;;;;;;;;;;5050654;28;20215;-84
2024/03/19 08:56:32;;;;;;;5.60;4.90;;;;;;;;;;5043186;28;20174;-83
2024/03/19 08:58:58;;;;;;;6.93;5.17;;;;;;;;;;5064862;28;20181;-82
2024/03/19 09:01:24;;;;;;;11.63;5.10;;;;;;;;;;5052540;28;20420;-84
2024/03/19 09:03:51;;;;;;;10.20;5.43;;;;;;;;;;5052317;28;20431;-84
2024/03/19 09:06:17;;;;;;;10.53;4.73;;;;;;;;;;5050844;28;20408;-84
2024/03/19 09:08:43;;;;;;;7.07;4.93;;;;;;;;;;5046551;28;20474;-83
2024/03/19 09:11:10;;;;;;;13.07;5.70;;;;;;;;;;5051136;28;20428;-84
2024/03/19 09:13:35;;;;;;;7.63;4.60;;;;;;;;;;5051637;28;20420;-84
2024/03/19 09:16:02;;;;;;;11.13;5.10;;;;;;;;;;5050541;28;20430;-84
2024/03/19 09:18:28;;;;;;;10.70;5.10;;;;;;;;;;5047022;28;20427;-85
2024/03/19 09:20:54;;;;;;;10.47;5.23;;;;;;;;;;5046386;28;20822;-84
2024/03/19 09:23:20;;;;;;;8.83;5.13;;;;;;;;;;5048851;28;20427;-85
2024/03/19 09:25:46;;;;;;;9.13;6.33;;;;;;;;;;5064588;28;20432;-85
2024/03/19 09:28:12;;;;;;;7.30;4.93;;;;;;;;;;5052609;28;20481;-85
2024/03/19 09:30:38;;;;;;;9.43;4.63;;;;;;;;;;5049124;28;20415;-86
2024/03/19 09:33:05;;;;;;;7.90;4.93;;;;;;;;;;5048455;28;20486;-85
2024/03/19 09:35:32;;;;;;;8.77;4.63;;;;;;;;;;5052939;28;20429;-84
2024/03/19 09:37:58;;;;;;;9.17;4.50;;;;;;;;;;5043561;28;20420;-85
2024/03/19 09:40:24;;;;;;;9.03;4.60;;;;;;;;;;5046974;28;20432;-84
2024/03/19 09:42:50;;;;;;;6.57;4.17;;;;;;;;;;5047635;28;20537;-85
2024/03/19 09:45:26;;;;;;;10.70;4.20;;;;;;;;;;5046136;28;20428;-86
2024/03/19 09:47:53;;;;;;;11.50;4.90;;;;;;;;;;5044881;28;20467;-85
2024/03/19 09:50:19;;;;;;;8.80;4.70;;;;;;;;;;5044291;28;20421;-86
2024/03/19 09:52:45;;;;;;;9.37;4.37;;;;;;;;;;5054992;28;20404;-85
2024/03/19 09:55:15;;;;;;;6.53;4.37;;;;;;;;;;5041733;28;20492;-85
2024/03/19 09:57:46;;;;;;;7.77;4.20;;;;;;;;;;5046974;28;20404;-86
2024/03/19 10:00:32;;;;;;;9.83;5.03;;;;;;;;;;5043388;28;20490;-86
2024/03/19 10:03:00;;;;;;;6.03;3.70;;;;;;;;;;5046006;28;20493;-86
2024/03/19 10:05:26;;;;;;;8.53;4.33;;;;;;;;;;5042887;28;21008;-84
2024/03/19 10:07:53;;;;;;;6.30;3.73;;;;;;;;;;5049830;28;20495;-85
2024/03/19 10:10:19;;;;;;;6.50;4.20;;;;;;;;;;5045518;28;20430;-86
2024/03/19 10:12:46;;;;;;;10.37;3.70;;;;;;;;;;5049008;28;20400;-84
2024/03/19 10:15:18;;;;;;;4.83;2.90;;;;;;;;;;5053038;28;20440;-85
2024/03/19 10:17:45;;;;;;;9.80;4.10;;;;;;;;;;5044090;28;20928;-84
2024/03/19 10:20:12;;;;;;;8.83;3.87;;;;;;;;;;5044509;28;20424;-85
2024/03/19 10:22:38;;;;;;;8.73;4.43;;;;;;;;;;5062427;28;20439;-85
2024/03/19 10:25:07;;;;;;;11.30;4.67;;;;;;;;;;5060141;28;20936;-85
2024/03/19 10:27:34;;;;;;;9.60;4.37;;;;;;;;;;5045068;28;20910;-85
2024/03/19 10:30:00;;;;;;;10.53;4.00;;;;;;;;;;5047199;28;20559;-85
2024/03/19 10:32:27;;;;;;;7.33;4.53;;;;;;;;;;5060984;28;20501;-83
2024/03/19 10:34:53;;;;;;;6.13;3.57;;;;;;;;;;5056925;28;20421;-85
2024/03/19 10:37:19;;;;;;;5.93;3.40;;;;;;;;;;5046311;28;20388;-85
2024/03/19 10:39:45;;;;;;;7.57;3.33;;;;;;;;;;5044889;28;20434;-85
2024/03/19 10:42:13;;;;;;;6.40;2.77;;;;;;;;;;5050130;28;20441;-85
2024/03/19 10:44:40;;;;;;;3.30;1.87;;;;;;;;;;5054113;28;21125;-85
2024/03/19 10:47:09;;;;;;;6.63;1.83;;;;;;;;;;5048800;28;20468;-85
2024/03/19 10:49:35;;;;;;;4.10;1.57;;;;;;;;;;5048799;28;20463;-84
2024/03/19 10:52:06;;;;;;;2.30;1.40;;;;;;;;;;5068597;28;20452;-84
2024/03/19 10:54:34;;;;;;;4.07;1.33;;;;;;;;;;5055185;28;20477;-84
2024/03/19 10:57:01;;;;;;;7.20;1.80;;;;;;;;;;5054622;28;20404;-85
2024/03/19 10:59:35;;;;;;;4.90;1.73;;;;;;;;;;5071228;28;20402;-85
2024/03/19 11:02:04;;;;;;;4.40;1.80;;;;;;;;;;5048247;28;20450;-84
2024/03/19 11:04:31;;;;;;;3.70;1.27;;;;;;;;;;5046317;28;20423;-85
2024/03/19 11:06:58;;;;;;;3.70;1.67;;;;;;;;;;5047627;28;20427;-83
2024/03/19 11:09:25;;;;;;;3.93;1.57;;;;;;;;;;5055528;28;20452;-84
2024/03/19 11:11:52;;;;;;;5.00;1.97;;;;;;;;;;5044721;28;20964;-84
2024/03/19 11:14:18;;;;;;;4.37;2.00;;;;;;;;;;5048356;28;20855;-85
2024/03/19 11:16:45;;;;;;;4.10;1.80;;;;;;;;;;5049474;28;20435;-85
2024/03/19 11:19:18;;;;;;;4.50;2.13;;;;;;;;;;5046404;28;20443;-84
2024/03/19 11:21:47;;;;;;;6.73;2.20;;;;;;;;;;5048889;28;20435;-85
2024/03/19 11:24:28;;;;;;;3.57;2.30;;;;;;;;;;5051952;28;20499;-83
2024/03/19 11:27:00;;;;;;;6.83;2.77;;;;;;;;;;5045880;28;20808;-85
2024/03/19 11:29:27;;;;;;;4.73;2.43;;;;;;;;;;5053935;28;20463;-84
2024/03/19 11:31:56;;;;;;;4.20;1.97;;;;;;;;;;5040753;28;20425;-84
2024/03/19 11:34:22;;;;;;;4.97;2.00;;;;;;;;;;5044186;28;20470;-85
2024/03/19 11:36:48;;;;;;;4.60;2.83;;;;;;;;;;5049139;28;20431;-84
2024/03/19 11:39:18;;;;;;;4.53;2.60;;;;;;;;;;5068317;28;20973;-84
2024/03/19 11:41:44;;;;;;;10.23;2.27;;;;;;;;;;5044818;28;20467;-85
2024/03/19 11:44:17;;;;;;;6.73;2.43;;;;;;;;;;5049908;28;20421;-85
2024/03/19 11:46:44;;;;;;;9.90;2.73;;;;;;;;;;5050945;28;20506;-86
2024/03/19 11:49:23;;;;;;;4.83;2.00;;;;;;;;;;5045162;28;20539;-85
2024/03/19 11:52:02;;;;;;;6.50;2.53;;;;;;;;;;5041569;28;20453;-86
2024/03/19 11:54:31;;;;;;;8.13;2.20;;;;;;;;;;5048709;28;20397;-84
2024/03/19 11:56:57;;;;;;;5.67;2.00;;;;;;;;;;5046072;28;20598;-84
2024/03/19 11:59:27;;;;;;;7.60;2.57;;;;;;;;;;5068436;28;20419;-85
2024/03/19 12:01:56;;;;;;;3.00;1.83;;;;;;;;;;5043020;28;20947;-85
2024/03/19 12:04:23;;;;;;;4.73;1.80;;;;;;;;;;5048463;28;20440;-85
2024/03/19 12:06:49;;;;;;;4.57;2.30;;;;;;;;;;5049270;28;20486;-85
2024/03/19 12:09:19;;;;;;;3.07;1.73;;;;;;;;;;5049828;28;20491;-86
2024/03/19 12:11:46;;;;;;;3.10;1.60;;;;;;;;;;5061198;28;20425;-85
2024/03/19 12:14:16;;;;;;;5.73;2.23;;;;;;;;;;5065136;28;20459;-83
2024/03/19 12:16:42;;;;;;;4.37;1.77;;;;;;;;;;5050930;28;20435;-85
2024/03/19 12:19:12;;;;;;;4.10;1.60;;;;;;;;;;5065796;28;20463;-85
2024/03/19 12:21:39;;;;;;;4.57;1.93;;;;;;;;;;5044110;28;20441;-85
2024/03/19 12:24:07;;;;;;;3.13;1.73;;;;;;;;;;5052102;28;20382;-85
2024/03/19 12:26:33;;;;;;;4.20;1.37;;;;;;;;;;5042625;28;20431;-85
2024/03/19 12:28:59;;;;;;;2.40;1.50;;;;;;;;;;5045809;28;20515;-86
2024/03/19 12:31:35;;;;;;;3.60;1.60;;;;;;;;;;5047483;28;20421;-85
2024/03/19 12:34:22;;;;;;;4.67;1.70;;;;;;;;;;5040136;28;20760;-86
2024/03/19 12:36:48;;;;;;;8.07;2.03;;;;;;;;;;5045944;28;20402;-85
2024/03/19 12:39:14;;;;;;;3.43;1.40;;;;;;;;;;5049992;28;20495;-84
2024/03/19 12:41:40;;;;;;;2.70;1.53;;;;;;;;;;5044585;28;20499;-85
2024/03/19 12:44:06;;;;;;;3.33;1.70;;;;;;;;;;5044077;28;20432;-85
2024/03/19 12:46:32;;;;;;;4.23;1.43;;;;;;;;;;5067099;28;20492;-86
2024/03/19 12:48:58;;;;;;;2.60;1.47;;;;;;;;;;5046248;28;20416;-86
2024/03/19 12:51:24;;;;;;;4.07;1.43;;;;;;;;;;5042524;28;20442;-86
2024/03/19 12:53:52;;;;;;;4.67;2.13;;;;;;;;;;5053187;28;20520;-85
2024/03/19 12:56:18;;;;;;;4.23;1.80;;;;;;;;;;5053350;28;20482;-85
2024/03/19 12:58:44;;;;;;;4.37;1.37;;;;;;;;;;5062371;28;20869;-85
2024/03/19 13:01:12;;;;;;;6.90;2.03;;;;;;;;;;5044820;28;20433;-86
2024/03/19 13:03:41;;;;;;;7.10;1.47;;;;;;;;;;5048668;28;20391;-85
2024/03/19 13:06:07;;;;;;;1.70;1.20;;;;;;;;;;5043279;28;20419;-85
2024/03/19 13:08:33;;;;;;;5.83;1.50;;;;;;;;;;5041381;28;20430;-85
2024/03/19 13:10:59;;;;;;;4.20;1.97;;;;;;;;;;5044089;28;20840;-86
2024/03/19 13:13:25;;;;;;;6.67;1.50;;;;;;;;;;5040474;28;20838;-86
2024/03/19 13:15:51;;;;;;;3.37;1.30;;;;;;;;;;5047342;28;20483;-86
2024/03/19 13:18:17;;;;;;;1.80;1.00;;;;;;;;;;5046106;28;20434;-85
2024/03/19 13:20:43;;;;;;;1.70;1.03;;;;;;;;;;5053867;28;20432;-84
2024/03/19 13:23:09;;;;;;;4.33;1.47;;;;;;;;;;5049311;28;20907;-86
2024/03/19 13:25:36;;;;;;;2.93;1.40;;;;;;;;;;5048471;28;20494;-86
2024/03/19 13:28:02;;;;;;;3.20;1.20;;;;;;;;;;5035239;28;20406;-85
2024/03/19 13:30:29;;;;;;;3.60;1.53;;;;;;;;;;5039285;28;20429;-85
2024/03/19 13:32:58;;;;;;;1.97;1.30;;;;;;;;;;5042381;28;20412;-85
2024/03/19 13:35:24;;;;;;;2.80;1.20;;;;;;;;;;5047328;28;20424;-85
2024/03/19 13:37:50;;;;;;;3.17;1.40;;;;;;;;;;5045112;28;20484;-86
2024/03/19 13:40:17;;;;;;;3.07;1.43;;;;;;;;;;5044151;28;20832;-85
2024/03/19 13:42:42;;;;;;;3.20;1.20;;;;;;;;;;5041312;28;20867;-86
2024/03/19 13:45:09;;;;;;;3.07;1.50;;;;;;;;;;5041026;28;20415;-84
2024/03/19 13:47:35;;;;;;;3.53;1.30;;;;;;;;;;5034633;28;20975;-84
2024/03/19 13:50:01;;;;;;;1.93;1.10;;;;;;;;;;5036947;28;20452;-84
2024/03/19 13:52:27;;;;;;;1.70;1.00;;;;;;;;;;5044941;28;20546;-83
2024/03/19 13:54:53;;;;;;;5.60;1.50;;;;;;;;;;5045427;28;20512;-85
2024/03/19 13:57:20;;;;;;;7.33;1.57;;;;;;;;;;5042566;28;20422;-85
2024/03/19 13:59:46;;;;;;;5.47;1.60;;;;;;;;;;5043621;28;20450;-85
2024/03/19 14:02:14;;;;;;;2.73;1.30;;;;;;;;;;5048992;28;20432;-85
2024/03/19 14:04:40;;;;;;;2.57;1.27;;;;;;;;;;5038050;28;20432;-86
2024/03/19 14:07:06;;;;;;;2.00;1.10;;;;;;;;;;5049549;28;20415;-86
2024/03/19 14:09:33;;;;;;;4.70;1.50;;;;;;;;;;5057733;28;20432;-86
2024/03/19 14:11:59;;;;;;;6.33;1.40;;;;;;;;;;5046688;28;20422;-85
2024/03/19 14:14:27;;;;;;;3.17;1.50;;;;;;;;;;5038549;28;20405;-85
2024/03/19 14:16:54;;;;;;;1.57;1.00;;;;;;;;;;5041624;28;20436;-85
2024/03/19 14:19:20;;;;;;;1.67;0.90;;;;;;;;;;5044844;28;20430;-85
2024/03/19 14:21:46;;;;;;;2.80;1.10;;;;;;;;;;5043606;28;20826;-85
2024/03/19 14:24:12;;;;;;;4.50;1.47;;;;;;;;;;5049832;28;20408;-83
2024/03/19 14:26:38;;;;;;;2.70;1.30;;;;;;;;;;5041022;28;20427;-84
2024/03/19 14:29:04;;;;;;;3.33;1.33;;;;;;;;;;5041001;28;20428;-84
2024/03/19 14:31:30;;;;;;;3.00;1.27;;;;;;;;;;5040098;28;20523;-86
2024/03/19 14:33:56;;;;;;;2.67;1.30;;;;;;;;;;5042256;28;20524;-84
2024/03/19 14:36:22;;;;;;;3.37;1.20;;;;;;;;;;5039383;28;20430;-83